Madisonville, Missouri
Current Conditions -  °F | °C
As of 3:54 PM on Monday 24 Nov 2014 (Local Time) from KUIN Reporting Station
Overcast Overcast  
Wind Chill: 23°   Ceiling: 2700
Heat Index: 33°   Visibility: 10mi
Dew Point: 25°   Wind: 15mph
Humidity: 72%   Direction: 270°W
Pressure: 29.77"   Gusts: 30mph
Location:  39.5275°N, 91.5489°W
Report Text: KUIN 242154Z AUTO 27013G26KT 10SM OVC027 01/M04 A2977 RMK AO2 PK WND 25026/2151 SLP087 T00061039
Loading
Personal Weather Stations






























Interactive Weather Map New forecast layout! Learn more

10-Day Weather Forecast

Advertisements
Track Severe Weather on mobile